createdAt,value
2023-10-13T00:00:37.505Z,7.15
2023-10-13T00:03:07.277Z,7.13
2023-10-13T00:05:35.181Z,5.63
2023-10-13T00:08:04.012Z,6.07
2023-10-13T00:10:32.013Z,5.70
2023-10-13T00:13:17.163Z,7.13
2023-10-13T00:16:00.798Z,4.78
2023-10-13T00:18:29.453Z,5.20
2023-10-13T00:20:58.022Z,7.80
2023-10-13T00:23:28.537Z,8.70
2023-10-13T00:26:02.179Z,5.93
2023-10-13T00:28:37.225Z,7.18
2023-10-13T00:31:15.532Z,6.28
2023-10-13T00:33:43.566Z,4.47
2023-10-13T00:36:18.513Z,6.07
2023-10-13T00:38:49.865Z,6.03
2023-10-13T00:41:19.095Z,6.32
2023-10-13T00:44:05.472Z,5.93
2023-10-13T00:46:37.685Z,6.35
2023-10-13T00:49:05.920Z,4.75
2023-10-13T00:51:34.417Z,5.65
2023-10-13T00:54:11.416Z,9.48
2023-10-13T00:57:08.083Z,6.60
2023-10-13T01:03:22.566Z,7.95
2023-10-13T01:08:48.228Z,5.45
2023-10-13T01:11:23.412Z,5.47
2023-10-13T01:14:05.374Z,3.88
2023-10-13T01:16:34.230Z,5.68
2023-10-13T01:19:10.230Z,8.57
2023-10-13T01:21:46.379Z,7.22
2023-10-13T01:24:27.504Z,6.63
2023-10-13T01:26:55.100Z,7.05
2023-10-13T01:29:30.903Z,5.72
2023-10-13T01:31:58.321Z,5.80
2023-10-13T01:34:26.390Z,6.25
2023-10-13T01:36:56.207Z,6.43
2023-10-13T01:39:28.122Z,9.55
2023-10-13T01:54:56.829Z,5.05
2023-10-13T02:00:13.377Z,4.80
2023-10-13T02:05:39.829Z,5.72
2023-10-13T02:14:19.096Z,4.15
2023-10-13T02:16:51.529Z,5.85
2023-10-13T02:25:36.883Z,5.88
2023-10-13T02:28:15.438Z,6.20
2023-10-13T02:30:47.759Z,7.97
2023-10-13T02:33:15.942Z,7.72
2023-10-13T02:35:56.771Z,7.72
2023-10-13T02:38:40.337Z,4.22
2023-10-13T02:41:26.585Z,5.63
2023-10-13T02:43:54.508Z,4.18
2023-10-13T02:46:31.794Z,5.65
2023-10-13T02:49:03.081Z,7.47
2023-10-13T02:51:36.893Z,5.32
2023-10-13T02:54:32.862Z,5.93
2023-10-13T02:57:05.723Z,7.80
2023-10-13T03:13:35.410Z,5.05
2023-10-13T03:16:06.502Z,7.60
2023-10-13T03:21:31.698Z,7.00
2023-10-13T03:24:06.158Z,6.75
2023-10-13T03:26:36.244Z,6.05
2023-10-13T03:29:05.908Z,10.98
2023-10-13T03:31:38.748Z,7.30
2023-10-13T03:34:10.995Z,6.38
2023-10-13T03:36:56.746Z,7.13
2023-10-13T03:39:31.846Z,8.30
2023-10-13T03:44:31.798Z,9.27
2023-10-13T03:47:19.176Z,6.68
2023-10-13T03:49:52.380Z,9.45
2023-10-13T03:52:23.990Z,10.30
2023-10-13T03:54:52.979Z,12.40
2023-10-13T03:59:51.931Z,8.52
2023-10-13T04:02:23.233Z,8.98
2023-10-13T04:04:56.099Z,8.15
2023-10-13T04:08:01.493Z,7.38
2023-10-13T04:10:47.447Z,8.60
2023-10-13T04:29:47.192Z,8.90
2023-10-13T04:32:18.057Z,8.27
2023-10-13T04:34:48.390Z,9.07
2023-10-13T04:37:30.909Z,10.20
2023-10-13T04:42:57.440Z,10.85
2023-10-13T04:45:34.567Z,10.48
2023-10-13T04:48:26.334Z,9.48
2023-10-13T04:51:07.993Z,10.00
2023-10-13T04:56:59.596Z,8.23
2023-10-13T04:59:49.958Z,10.27
2023-10-13T05:02:36.149Z,9.05
2023-10-13T05:05:27.197Z,9.93
2023-10-13T05:08:13.780Z,8.70
2023-10-13T05:10:59.524Z,9.43
2023-10-13T05:13:45.489Z,8.07
2023-10-13T05:16:54.121Z,6.93
2023-10-13T05:19:40.085Z,8.45
2023-10-13T05:22:26.282Z,7.97
2023-10-13T05:25:12.056Z,8.63
2023-10-13T05:28:30.270Z,7.45
2023-10-13T05:31:21.763Z,6.13
2023-10-13T05:34:07.385Z,7.07
2023-10-13T05:36:54.012Z,10.15
2023-10-13T05:39:40.170Z,6.57
2023-10-13T05:42:26.457Z,6.93
2023-10-13T05:45:12.283Z,6.13
2023-10-13T05:47:39.882Z,6.88
2023-10-13T05:50:20.115Z,6.78
2023-10-13T05:52:56.642Z,8.15
2023-10-13T05:55:45.527Z,7.50
2023-10-13T05:58:31.956Z,6.50
2023-10-13T06:01:18.212Z,4.93
2023-10-13T06:04:04.564Z,6.40
2023-10-13T06:06:50.397Z,8.18
2023-10-13T06:09:36.047Z,6.68
2023-10-13T06:12:22.172Z,6.38
2023-10-13T06:15:08.274Z,8.18
2023-10-13T06:17:53.998Z,7.20
2023-10-13T06:20:40.052Z,7.45
2023-10-13T06:23:39.640Z,9.95
2023-10-13T06:28:58.399Z,10.82
2023-10-13T06:31:29.825Z,9.85
2023-10-13T06:33:57.568Z,12.07
2023-10-13T06:36:24.943Z,12.88
2023-10-13T06:39:18.351Z,12.07
2023-10-13T06:41:46.309Z,7.68
2023-10-13T06:44:17.251Z,9.95
2023-10-13T06:46:45.507Z,9.13
2023-10-13T06:49:15.094Z,10.98
2023-10-13T06:51:42.694Z,8.27
2023-10-13T06:54:12.470Z,9.45
2023-10-13T06:56:42.609Z,7.75
2023-10-13T06:59:09.832Z,8.55
2023-10-13T07:01:40.246Z,9.60
2023-10-13T07:04:15.713Z,9.13
2023-10-13T07:09:36.291Z,8.68
2023-10-13T07:12:23.716Z,9.15
2023-10-13T07:14:54.550Z,12.48
2023-10-13T07:17:28.309Z,9.45
2023-10-13T07:20:16.246Z,7.88
2023-10-13T07:22:56.405Z,9.25
2023-10-13T07:25:27.970Z,12.35
2023-10-13T07:27:58.254Z,9.38
2023-10-13T07:30:29.390Z,13.32
2023-10-13T07:33:00.589Z,13.63
2023-10-13T07:35:32.088Z,10.10
2023-10-13T07:38:01.228Z,10.00
2023-10-13T07:40:31.305Z,13.23
2023-10-13T07:43:02.505Z,8.05
2023-10-13T07:45:39.033Z,18.02
2023-10-13T07:48:24.935Z,10.60
2023-10-13T07:51:04.133Z,10.75
2023-10-13T07:53:40.406Z,12.75
2023-10-13T07:56:13.133Z,13.07
2023-10-13T07:59:01.024Z,12.70
2023-10-13T08:01:31.990Z,8.20
2023-10-13T08:04:15.855Z,9.23
2023-10-13T08:06:47.642Z,10.40
2023-10-13T08:09:41.502Z,12.80
2023-10-13T08:12:13.349Z,11.95
2023-10-13T08:14:41.816Z,8.63
2023-10-13T08:17:13.361Z,9.93
2023-10-13T08:19:47.365Z,10.32
2023-10-13T08:22:36.034Z,11.95
2023-10-13T08:25:25.816Z,11.27
2023-10-13T08:28:14.184Z,11.60
2023-10-13T08:31:00.773Z,12.63
2023-10-13T08:33:29.046Z,14.15
2023-10-13T08:36:21.734Z,10.13
2023-10-13T08:38:59.657Z,12.20
2023-10-13T08:41:30.648Z,12.40
2023-10-13T08:44:04.689Z,12.60
2023-10-13T08:46:53.837Z,10.32
2023-10-13T08:49:24.654Z,14.52
2023-10-13T08:52:06.476Z,9.25
2023-10-13T08:54:47.285Z,11.23
2023-10-13T08:57:33.440Z,12.63
2023-10-13T09:00:22.042Z,8.50
2023-10-13T09:03:23.677Z,10.10
2023-10-13T09:06:03.555Z,11.88
2023-10-13T09:08:51.302Z,11.82
2023-10-13T09:11:27.500Z,11.55
2023-10-13T09:13:57.518Z,12.25
2023-10-13T09:16:46.096Z,9.70
2023-10-13T09:19:13.704Z,10.68
2023-10-13T09:21:41.579Z,12.20
2023-10-13T09:24:33.225Z,10.80
2023-10-13T09:27:03.795Z,7.47
2023-10-13T09:29:31.571Z,9.68
2023-10-13T09:32:03.882Z,17.08
2023-10-13T09:34:33.220Z,12.50
2023-10-13T09:37:01.101Z,13.13
2023-10-13T09:39:36.030Z,14.05
2023-10-13T09:42:04.887Z,12.30
2023-10-13T09:44:32.613Z,12.73
2023-10-13T09:47:19.056Z,11.55
2023-10-13T09:49:50.862Z,13.48
2023-10-13T09:52:26.970Z,16.45
2023-10-13T09:55:10.225Z,12.35
2023-10-13T09:57:43.845Z,11.27
2023-10-13T10:00:33.938Z,13.35
2023-10-13T10:03:21.787Z,16.00
2023-10-13T10:06:04.722Z,13.23
2023-10-13T10:08:36.088Z,14.13
2023-10-13T10:11:22.496Z,16.50
2023-10-13T10:13:58.903Z,19.80
2023-10-13T10:16:47.909Z,15.68
2023-10-13T10:19:15.389Z,15.23
2023-10-13T10:21:42.553Z,10.38
2023-10-13T10:24:17.660Z,14.48
2023-10-13T10:26:55.013Z,16.23
2023-10-13T10:29:22.309Z,16.77
2023-10-13T10:31:50.159Z,12.93
2023-10-13T10:34:21.207Z,15.48
2023-10-13T10:36:49.591Z,15.18
2023-10-13T10:39:18.637Z,15.18
2023-10-13T10:41:45.859Z,11.95
2023-10-13T10:44:39.227Z,13.63
2023-10-13T10:47:13.188Z,11.75
2023-10-13T10:49:42.264Z,11.50
2023-10-13T10:52:19.502Z,12.60
2023-10-13T10:54:52.997Z,15.77
2023-10-13T10:57:20.482Z,12.18
2023-10-13T10:59:48.186Z,12.88
2023-10-13T11:02:30.702Z,15.05
2023-10-13T11:04:59.313Z,10.65
2023-10-13T11:07:29.049Z,15.80
2023-10-13T11:10:07.774Z,13.30
2023-10-13T11:12:40.881Z,13.13
2023-10-13T11:15:23.139Z,18.42
2023-10-13T11:17:56.167Z,16.48
2023-10-13T11:20:44.206Z,12.38
2023-10-13T11:23:15.070Z,15.98
2023-10-13T11:25:44.803Z,17.45
2023-10-13T11:28:18.683Z,11.57
2023-10-13T11:30:50.780Z,13.55
2023-10-13T11:33:33.661Z,12.55
2023-10-13T11:36:04.990Z,11.15
2023-10-13T11:38:42.336Z,13.73
2023-10-13T11:41:12.886Z,14.32
2023-10-13T11:44:06.268Z,13.07
2023-10-13T11:49:27.740Z,12.88
2023-10-13T11:52:18.105Z,11.45
2023-10-13T11:54:45.885Z,11.32
2023-10-13T11:57:13.203Z,13.38
2023-10-13T11:59:47.796Z,16.10
2023-10-13T12:02:27.434Z,15.77
2023-10-13T12:04:58.934Z,12.73
2023-10-13T12:07:46.713Z,13.63
2023-10-13T12:10:18.285Z,14.85
2023-10-13T12:12:47.765Z,12.15
2023-10-13T12:15:26.618Z,9.30
2023-10-13T12:17:54.555Z,11.25
2023-10-13T12:20:34.430Z,12.23
2023-10-13T12:23:10.863Z,12.20
2023-10-13T12:25:55.875Z,15.77
2023-10-13T12:28:24.493Z,15.90
2023-10-13T12:30:54.692Z,12.32
2023-10-13T12:33:25.941Z,11.95
2023-10-13T12:36:11.949Z,10.43
2023-10-13T12:38:49.538Z,15.68
2023-10-13T12:41:36.793Z,14.90
2023-10-13T12:44:24.053Z,18.42
2023-10-13T12:47:10.958Z,12.77
2023-10-13T12:49:45.277Z,18.63
2023-10-13T12:52:26.554Z,12.27
2023-10-13T12:55:02.544Z,14.73
2023-10-13T12:57:30.314Z,11.70
2023-10-13T12:59:58.781Z,17.70
2023-10-13T13:02:27.076Z,14.27
2023-10-13T13:05:13.596Z,13.45
2023-10-13T13:07:48.146Z,13.75
2023-10-13T13:10:18.302Z,13.07
2023-10-13T13:12:45.473Z,10.80
2023-10-13T13:15:15.674Z,12.52
2023-10-13T13:17:43.111Z,10.82
2023-10-13T13:20:27.159Z,10.50
2023-10-13T13:22:55.729Z,12.07
2023-10-13T13:25:33.569Z,18.92
2023-10-13T13:28:06.197Z,17.60
2023-10-13T13:30:37.916Z,13.02
2023-10-13T13:33:12.149Z,10.38
2023-10-13T13:35:50.029Z,18.48
2023-10-13T13:38:23.619Z,13.80
2023-10-13T13:40:51.053Z,15.50
2023-10-13T13:43:37.019Z,16.60
2023-10-13T13:46:04.624Z,12.48
2023-10-13T13:48:33.706Z,9.65
2023-10-13T13:51:14.075Z,8.50
2023-10-13T13:53:44.026Z,10.93
2023-10-13T13:56:11.550Z,9.77
2023-10-13T13:58:39.452Z,14.93
2023-10-13T14:01:13.510Z,9.60
2023-10-13T14:03:46.495Z,16.40
2023-10-13T14:06:28.352Z,12.43
2023-10-13T14:08:56.620Z,14.77
2023-10-13T14:11:40.065Z,14.65
2023-10-13T14:14:26.348Z,18.52
2023-10-13T14:16:54.776Z,14.43
2023-10-13T14:19:30.993Z,12.23
2023-10-13T14:21:58.545Z,15.10
2023-10-13T14:24:29.900Z,15.75
2023-10-13T14:26:57.658Z,13.50
2023-10-13T14:29:27.719Z,11.65
2023-10-13T14:31:55.311Z,16.88
2023-10-13T14:34:23.309Z,15.20
2023-10-13T14:36:50.738Z,12.68
2023-10-13T14:39:18.034Z,12.82
2023-10-13T14:41:47.942Z,13.80
2023-10-13T14:44:18.157Z,12.63
2023-10-13T14:46:45.825Z,13.05
2023-10-13T14:49:15.370Z,15.13
2023-10-13T14:51:42.565Z,12.30
2023-10-13T14:54:09.755Z,10.88
2023-10-13T14:56:36.954Z,13.40
2023-10-13T14:59:05.989Z,10.50
2023-10-13T15:01:33.640Z,12.82
2023-10-13T15:04:01.235Z,12.35
2023-10-13T15:06:32.198Z,13.30
2023-10-13T15:09:01.523Z,15.75
2023-10-13T15:11:44.201Z,10.70
2023-10-13T15:14:14.738Z,10.27
2023-10-13T15:16:44.518Z,12.82
2023-10-13T15:19:13.350Z,12.93
2023-10-13T15:21:41.495Z,13.20
2023-10-13T15:26:49.301Z,9.35
2023-10-13T15:29:17.608Z,12.50
2023-10-13T15:32:06.539Z,13.45
2023-10-13T15:34:34.038Z,17.42
2023-10-13T15:37:06.307Z,18.25
2023-10-13T15:39:33.691Z,15.68
2023-10-13T15:42:00.882Z,13.80
2023-10-13T15:44:31.303Z,12.77
2023-10-13T15:49:33.552Z,16.00
2023-10-13T15:52:00.881Z,20.05
2023-10-13T15:54:28.061Z,12.40
2023-10-13T15:56:58.174Z,15.63
2023-10-13T15:59:25.624Z,33.03
2023-10-13T16:01:59.193Z,20.00
2023-10-13T16:04:27.150Z,13.45
2023-10-13T16:06:54.636Z,16.85
2023-10-13T16:09:26.000Z,13.05
2023-10-13T16:11:53.980Z,15.18
2023-10-13T16:14:22.285Z,15.68
2023-10-13T16:16:51.208Z,12.50
2023-10-13T16:19:22.520Z,13.50
2023-10-13T16:21:49.970Z,15.90
2023-10-13T16:24:20.767Z,11.30
2023-10-13T16:26:54.035Z,14.63
2023-10-13T16:29:21.631Z,12.27
2023-10-13T16:31:49.352Z,10.70
2023-10-13T16:34:17.863Z,12.52
2023-10-13T16:36:45.823Z,13.02
2023-10-13T16:39:18.524Z,15.68
2023-10-13T16:41:49.774Z,11.82
2023-10-13T16:44:18.077Z,13.40
2023-10-13T16:46:46.109Z,11.45
2023-10-13T16:49:13.449Z,13.73
2023-10-13T16:51:42.042Z,15.57
2023-10-13T16:54:09.576Z,13.80
2023-10-13T16:56:39.981Z,12.52
2023-10-13T16:59:08.396Z,11.05
2023-10-13T17:01:36.526Z,16.88
2023-10-13T17:04:05.981Z,14.98
2023-10-13T17:06:34.856Z,11.43
2023-10-13T17:09:04.991Z,12.80
2023-10-13T17:11:32.380Z,14.70
2023-10-13T17:14:00.176Z,11.98
2023-10-13T17:16:27.547Z,15.82
2023-10-13T17:18:55.951Z,11.57
2023-10-13T17:21:29.058Z,10.30
2023-10-13T17:23:57.703Z,16.13
2023-10-13T17:26:28.236Z,12.43
2023-10-13T17:29:04.037Z,12.00
2023-10-13T17:31:33.550Z,12.55
2023-10-13T17:34:01.430Z,11.20
2023-10-13T17:36:29.972Z,15.00
2023-10-13T17:38:57.499Z,14.75
2023-10-13T17:41:24.837Z,14.20
2023-10-13T17:43:52.100Z,14.10
2023-10-13T17:46:22.206Z,12.52
2023-10-13T17:48:49.982Z,14.98
2023-10-13T17:51:17.428Z,14.07
2023-10-13T17:53:47.122Z,11.88
2023-10-13T17:56:19.534Z,12.85
2023-10-13T17:58:47.052Z,12.93
2023-10-13T18:01:18.863Z,12.70
2023-10-13T18:03:49.347Z,11.02
2023-10-13T18:06:18.530Z,13.90
2023-10-13T18:08:45.993Z,17.38
2023-10-13T18:11:16.601Z,11.82
2023-10-13T18:13:44.277Z,11.30
2023-10-13T18:16:15.498Z,13.35
2023-10-13T18:18:43.420Z,11.60
2023-10-13T18:21:11.413Z,15.57
2023-10-13T18:23:41.464Z,9.85
2023-10-13T18:26:09.050Z,10.40
2023-10-13T18:28:37.204Z,13.00
2023-10-13T18:31:05.985Z,10.68
2023-10-13T18:33:33.687Z,10.35
2023-10-13T18:36:17.126Z,12.73
2023-10-13T18:38:45.552Z,9.43
2023-10-13T18:41:14.559Z,10.13
2023-10-13T18:43:42.392Z,8.38
2023-10-13T18:46:13.262Z,13.40
2023-10-13T18:48:41.633Z,10.98
2023-10-13T18:51:09.936Z,12.30
2023-10-13T18:53:41.656Z,12.43
2023-10-13T18:56:12.847Z,12.35
2023-10-13T18:58:40.715Z,11.77
2023-10-13T19:01:13.163Z,11.15
2023-10-13T19:03:41.274Z,10.52
2023-10-13T19:06:08.849Z,13.98
2023-10-13T19:08:36.518Z,18.08
2023-10-13T19:11:09.484Z,12.25
2023-10-13T19:13:37.000Z,12.10
2023-10-13T19:16:08.306Z,10.88
2023-10-13T19:18:36.171Z,12.90
2023-10-13T19:21:16.427Z,11.88
2023-10-13T19:23:43.864Z,17.30
2023-10-13T19:26:14.553Z,9.35
2023-10-13T19:28:44.958Z,16.80
2023-10-13T19:31:16.826Z,13.50
2023-10-13T19:33:44.928Z,11.20
2023-10-13T19:36:13.334Z,15.90
2023-10-13T19:38:43.634Z,13.40
2023-10-13T19:41:18.279Z,16.27
2023-10-13T19:43:46.767Z,12.63
2023-10-13T19:46:14.958Z,15.82
2023-10-13T19:48:42.426Z,12.75
2023-10-13T19:51:12.712Z,11.00
2023-10-13T19:53:43.467Z,13.27
2023-10-13T19:56:14.594Z,11.52
2023-10-13T19:58:42.616Z,14.35
2023-10-13T20:01:25.549Z,13.23
2023-10-13T20:03:56.859Z,12.38
2023-10-13T20:06:24.822Z,12.70
2023-10-13T20:08:52.838Z,11.95
2023-10-13T20:11:20.653Z,15.50
2023-10-13T20:13:51.147Z,13.88
2023-10-13T20:16:24.457Z,17.67
2023-10-13T20:18:55.839Z,13.05
2023-10-13T20:21:26.448Z,17.08
2023-10-13T20:23:55.540Z,15.93
2023-10-13T20:26:23.126Z,16.52
2023-10-13T20:28:50.414Z,14.88
2023-10-13T20:31:17.693Z,16.85
2023-10-13T20:33:45.060Z,17.67
2023-10-13T20:36:12.654Z,20.02
2023-10-13T20:38:40.161Z,15.35
2023-10-13T20:41:20.351Z,16.58
2023-10-13T20:43:49.661Z,20.00
2023-10-13T20:46:17.513Z,16.90
2023-10-13T20:48:48.456Z,16.60
2023-10-13T20:51:16.437Z,18.73
2023-10-13T20:53:44.978Z,15.18
2023-10-13T20:56:15.894Z,15.90
2023-10-13T20:58:49.841Z,12.13
2023-10-13T21:01:17.323Z,7.43
2023-10-13T21:03:45.029Z,10.88
2023-10-13T21:06:12.627Z,8.57
2023-10-13T21:08:40.251Z,10.75
2023-10-13T21:11:08.007Z,9.52
2023-10-13T21:13:36.192Z,9.02
2023-10-13T21:16:10.608Z,8.55
2023-10-13T21:18:38.674Z,7.78
2023-10-13T21:21:06.507Z,10.82
2023-10-13T21:23:34.078Z,7.18
2023-10-13T21:26:02.783Z,11.40
2023-10-13T21:31:06.532Z,9.95
2023-10-13T21:33:33.827Z,7.90
2023-10-13T21:36:09.587Z,9.32
2023-10-13T21:38:36.775Z,6.63
2023-10-13T21:41:06.816Z,9.85
2023-10-13T21:43:34.232Z,9.02
2023-10-13T21:46:06.902Z,9.57
2023-10-13T21:48:35.689Z,8.55
2023-10-13T21:51:03.084Z,13.70
2023-10-13T21:53:30.256Z,11.65
2023-10-13T21:55:57.466Z,9.45
2023-10-13T21:58:27.632Z,9.95
2023-10-13T22:00:57.087Z,11.43
2023-10-13T22:03:25.157Z,8.85
2023-10-13T22:05:52.454Z,9.55
2023-10-13T22:08:19.658Z,13.27
2023-10-13T22:10:49.771Z,8.60
2023-10-13T22:13:18.691Z,12.32
2023-10-13T22:15:46.518Z,10.13
2023-10-13T22:18:15.227Z,10.00
2023-10-13T22:20:42.553Z,9.80
2023-10-13T22:23:12.385Z,11.60
2023-10-13T22:25:39.571Z,13.98
2023-10-13T22:28:07.569Z,14.43
2023-10-13T22:30:35.598Z,18.98
2023-10-13T22:33:02.910Z,15.90
2023-10-13T22:35:30.241Z,12.75
2023-10-13T22:37:57.584Z,14.75
2023-10-13T22:40:25.505Z,20.20
2023-10-13T22:42:53.864Z,11.23
2023-10-13T22:45:21.288Z,17.23
2023-10-13T22:47:49.418Z,11.13
2023-10-13T22:50:19.343Z,19.13
2023-10-13T22:52:47.019Z,13.20
2023-10-13T22:55:23.683Z,7.63
2023-10-13T22:57:58.291Z,11.40
2023-10-13T23:00:47.999Z,6.82
2023-10-13T23:03:15.947Z,8.45
2023-10-13T23:05:52.608Z,8.93
2023-10-13T23:08:23.637Z,10.10
2023-10-13T23:10:53.142Z,8.63
2023-10-13T23:13:21.726Z,6.93
2023-10-13T23:15:50.151Z,7.97
2023-10-13T23:18:20.046Z,6.75
2023-10-13T23:20:52.180Z,6.57
2023-10-13T23:23:19.648Z,8.55
2023-10-13T23:25:46.751Z,8.13
2023-10-13T23:28:25.909Z,6.88
2023-10-13T23:31:01.363Z,5.55
2023-10-13T23:33:28.813Z,6.38
2023-10-13T23:35:56.078Z,7.30
2023-10-13T23:38:26.196Z,5.35
2023-10-13T23:40:57.565Z,6.10
2023-10-13T23:43:24.980Z,5.85
2023-10-13T23:45:55.374Z,7.38
2023-10-13T23:48:26.367Z,4.47
2023-10-13T23:51:00.722Z,7.35
2023-10-13T23:53:31.869Z,6.25
2023-10-13T23:56:09.112Z,5.20
2023-10-13T23:58:37.552Z,5.70
